sensor_id;sensor_type;location;lat;lon;timestamp;temperature;humidity
7564;DHT22;3823;53.586;10.040;2023-04-15T05:00:43;9.20;1.00
7564;DHT22;3823;53.586;10.040;2023-04-15T05:03:08;9.10;1.00
7564;DHT22;3823;53.586;10.040;2023-04-15T05:05:34;9.10;1.00
7564;DHT22;3823;53.586;10.040;2023-04-15T05:08:01;9.20;1.00
7564;DHT22;3823;53.586;10.040;2023-04-15T05:10:26;9.30;1.00
7564;DHT22;3823;53.586;10.040;2023-04-15T05:12:52;9.30;1.00
7564;DHT22;3823;53.586;10.040;2023-04-15T05:15:18;9.20;1.00
7564;DHT22;3823;53.586;10.040;2023-04-15T05:17:43;9.20;1.00
7564;DHT22;3823;53.586;10.040;2023-04-15T05:20:09;9.20;1.00
7564;DHT22;3823;53.586;10.040;2023-04-15T05:22:36;9.30;1.00
7564;DHT22;3823;53.586;10.040;2023-04-15T05:25:01;9.30;1.00
7564;DHT22;3823;53.586;10.040;2023-04-15T05:27:27;9.20;1.00
7564;DHT22;3823;53.586;10.040;2023-04-15T05:29:53;9.30;1.00
7564;DHT22;3823;53.586;10.040;2023-04-15T05:32:18;9.20;1.00
7564;DHT22;3823;53.586;10.040;2023-04-15T05:34:44;9.20;1.00
7564;DHT22;3823;53.586;10.040;2023-04-15T05:37:09;9.10;1.00
7564;DHT22;3823;53.586;10.040;2023-04-15T05:39:35;9.20;1.00
7564;DHT22;3823;53.586;10.040;2023-04-15T05:42:01;9.20;1.00
7564;DHT22;3823;53.586;10.040;2023-04-15T05:44:27;9.30;1.00
7564;DHT22;3823;53.586;10.040;2023-04-15T05:46:52;9.20;1.00
7564;DHT22;3823;53.586;10.040;2023-04-15T05:49:18;9.20;1.00
7564;DHT22;3823;53.586;10.040;2023-04-15T05:51:43;9.30;1.00
7564;DHT22;3823;53.586;10.040;2023-04-15T05:54:09;9.30;1.00
7564;DHT22;3823;53.586;10.040;2023-04-15T05:56:35;9.30;1.00
7564;DHT22;3823;53.586;10.040;2023-04-15T05:59:01;9.30;1.00
7564;DHT22;3823;53.586;10.040;2023-04-15T06:01:26;9.30;1.00
7564;DHT22;3823;53.586;10.040;2023-04-15T06:03:52;9.30;1.00
7564;DHT22;3823;53.586;10.040;2023-04-15T06:06:18;9.30;1.00
7564;DHT22;3823;53.586;10.040;2023-04-15T06:08:43;9.40;1.00
7564;DHT22;3823;53.586;10.040;2023-04-15T06:11:09;9.40;1.00
7564;DHT22;3823;53.586;10.040;2023-04-15T06:13:34;9.50;1.00
7564;DHT22;3823;53.586;10.040;2023-04-15T06:16:00;9.40;1.00
7564;DHT22;3823;53.586;10.040;2023-04-15T06:18:25;9.40;1.00
7564;DHT22;3823;53.586;10.040;2023-04-15T06:20:51;9.40;1.00
7564;DHT22;3823;53.586;10.040;2023-04-15T06:23:16;9.40;1.00
7564;DHT22;3823;53.586;10.040;2023-04-15T06:25:42;9.30;1.00
7564;DHT22;3823;53.586;10.040;2023-04-15T06:28:08;9.30;1.00
7564;DHT22;3823;53.586;10.040;2023-04-15T06:30:33;9.40;1.00
7564;DHT22;3823;53.586;10.040;2023-04-15T06:33:00;9.30;1.00
7564;DHT22;3823;53.586;10.040;2023-04-15T06:35:27;9.40;1.00
7564;DHT22;3823;53.586;10.040;2023-04-15T06:37:53;9.50;1.00
7564;DHT22;3823;53.586;10.040;2023-04-15T06:40:18;9.40;1.00
7564;DHT22;3823;53.586;10.040;2023-04-15T06:42:44;9.50;1.00
7564;DHT22;3823;53.586;10.040;2023-04-15T06:45:10;9.40;1.00
7564;DHT22;3823;53.586;10.040;2023-04-15T06:47:36;9.40;1.00
7564;DHT22;3823;53.586;10.040;2023-04-15T06:50:01;9.40;1.00
7564;DHT22;3823;53.586;10.040;2023-04-15T06:52:28;9.50;1.00
7564;DHT22;3823;53.586;10.040;2023-04-15T06:54:54;9.40;1.00
7564;DHT22;3823;53.586;10.040;2023-04-15T06:57:19;9.50;1.00
7564;DHT22;3823;53.586;10.040;2023-04-15T06:59:45;9.50;1.00
7564;DHT22;3823;53.586;10.040;2023-04-15T07:02:12;9.60;1.00
7564;DHT22;3823;53.586;10.040;2023-04-15T07:04:38;9.60;1.00
7564;DHT22;3823;53.586;10.040;2023-04-15T07:07:04;9.50;1.00
7564;DHT22;3823;53.586;10.040;2023-04-15T07:09:30;9.50;1.00
7564;DHT22;3823;53.586;10.040;2023-04-15T07:11:56;9.50;1.00
7564;DHT22;3823;53.586;10.040;2023-04-15T07:14:22;9.60;1.00
7564;DHT22;3823;53.586;10.040;2023-04-15T07:16:48;9.50;1.00
7564;DHT22;3823;53.586;10.040;2023-04-15T07:19:13;9.50;1.00
7564;DHT22;3823;53.586;10.040;2023-04-15T07:21:39;9.50;1.00
7564;DHT22;3823;53.586;10.040;2023-04-15T07:24:04;9.50;1.00
7564;DHT22;3823;53.586;10.040;2023-04-15T07:26:31;9.50;1.00
7564;DHT22;3823;53.586;10.040;2023-04-15T07:28:56;9.70;1.00
7564;DHT22;3823;53.586;10.040;2023-04-15T07:31:22;9.60;1.00
7564;DHT22;3823;53.586;10.040;2023-04-15T07:33:47;9.60;1.00
7564;DHT22;3823;53.586;10.040;2023-04-15T07:36:13;9.60;1.00
7564;DHT22;3823;53.586;10.040;2023-04-15T07:38:40;9.50;1.00
7564;DHT22;3823;53.586;10.040;2023-04-15T07:41:06;9.50;1.00
7564;DHT22;3823;53.586;10.040;2023-04-15T07:43:32;9.50;1.00
7564;DHT22;3823;53.586;10.040;2023-04-15T07:45:58;9.50;1.00
7564;DHT22;3823;53.586;10.040;2023-04-15T07:48:24;9.50;1.00
7564;DHT22;3823;53.586;10.040;2023-04-15T07:50:50;9.60;1.00
7564;DHT22;3823;53.586;10.040;2023-04-15T07:53:15;9.50;1.00
7564;DHT22;3823;53.586;10.040;2023-04-15T07:55:41;9.60;1.00
7564;DHT22;3823;53.586;10.040;2023-04-15T07:58:06;9.60;1.00
7564;DHT22;3823;53.586;10.040;2023-04-15T08:00:32;9.50;1.00
7564;DHT22;3823;53.586;10.040;2023-04-15T08:02:57;9.60;1.00
7564;DHT22;3823;53.586;10.040;2023-04-15T08:05:24;9.60;1.00
7564;DHT22;3823;53.586;10.040;2023-04-15T08:07:50;9.70;1.00
7564;DHT22;3823;53.586;10.040;2023-04-15T08:10:16;9.70;1.00
7564;DHT22;3823;53.586;10.040;2023-04-15T08:12:41;9.70;1.00
7564;DHT22;3823;53.586;10.040;2023-04-15T08:15:07;9.80;1.00
7564;DHT22;3823;53.586;10.040;2023-04-15T08:17:33;9.80;1.00
7564;DHT22;3823;53.586;10.040;2023-04-15T08:19:59;9.70;1.00
7564;DHT22;3823;53.586;10.040;2023-04-15T08:22:25;9.70;1.00
7564;DHT22;3823;53.586;10.040;2023-04-15T08:24:51;9.70;1.00
7564;DHT22;3823;53.586;10.040;2023-04-15T08:27:17;9.80;1.00
7564;DHT22;3823;53.586;10.040;2023-04-15T08:29:43;9.80;1.00
7564;DHT22;3823;53.586;10.040;2023-04-15T08:32:10;9.90;1.00
7564;DHT22;3823;53.586;10.040;2023-04-15T08:34:35;9.90;1.00
7564;DHT22;3823;53.586;10.040;2023-04-15T08:37:01;9.90;1.00
7564;DHT22;3823;53.586;10.040;2023-04-15T08:39:26;9.90;1.00
7564;DHT22;3823;53.586;10.040;2023-04-15T08:41:58;9.90;1.00
7564;DHT22;3823;53.586;10.040;2023-04-15T08:44:25;10.00;1.00
7564;DHT22;3823;53.586;10.040;2023-04-15T08:46:55;10.00;1.00
7564;DHT22;3823;53.586;10.040;2023-04-15T08:49:23;10.20;1.00
7564;DHT22;3823;53.586;10.040;2023-04-15T08:51:51;10.20;1.00
7564;DHT22;3823;53.586;10.040;2023-04-15T08:54:17;10.20;1.00
7564;DHT22;3823;53.586;10.040;2023-04-15T08:56:43;10.30;1.00
7564;DHT22;3823;53.586;10.040;2023-04-15T08:59:10;10.30;1.00
7564;DHT22;3823;53.586;10.040;2023-04-15T09:01:37;10.30;1.00
7564;DHT22;3823;53.586;10.040;2023-04-15T09:04:02;10.30;1.00
7564;DHT22;3823;53.586;10.040;2023-04-15T09:06:30;10.30;1.00
7564;DHT22;3823;53.586;10.040;2023-04-15T09:08:56;10.20;1.00
7564;DHT22;3823;53.586;10.040;2023-04-15T09:11:21;10.20;1.00
7564;DHT22;3823;53.586;10.040;2023-04-15T09:13:48;10.30;1.00
7564;DHT22;3823;53.586;10.040;2023-04-15T09:16:14;10.30;1.00
7564;DHT22;3823;53.586;10.040;2023-04-15T09:18:40;10.20;1.00
7564;DHT22;3823;53.586;10.040;2023-04-15T09:21:06;10.30;1.00
7564;DHT22;3823;53.586;10.040;2023-04-15T09:23:33;10.40;1.00
7564;DHT22;3823;53.586;10.040;2023-04-15T09:26:01;10.40;1.00
7564;DHT22;3823;53.586;10.040;2023-04-15T09:28:27;10.50;1.00
7564;DHT22;3823;53.586;10.040;2023-04-15T09:30:57;10.60;1.00
7564;DHT22;3823;53.586;10.040;2023-04-15T09:33:23;10.70;1.00
7564;DHT22;3823;53.586;10.040;2023-04-15T09:38:22;10.90;1.00
7564;DHT22;3823;53.586;10.040;2023-04-15T09:40:47;11.00;1.00
7564;DHT22;3823;53.586;10.040;2023-04-15T09:43:13;11.00;1.00
7564;DHT22;3823;53.586;10.040;2023-04-15T09:45:47;11.10;1.00
7564;DHT22;3823;53.586;10.040;2023-04-15T09:48:18;11.20;1.00
7564;DHT22;3823;53.586;10.040;2023-04-15T09:50:48;11.30;1.00
7564;DHT22;3823;53.586;10.040;2023-04-15T09:53:20;11.30;1.00
7564;DHT22;3823;53.586;10.040;2023-04-15T09:55:55;11.30;1.00
7564;DHT22;3823;53.586;10.040;2023-04-15T09:58:26;11.40;1.00
7564;DHT22;3823;53.586;10.040;2023-04-15T10:00:53;11.40;1.00
7564;DHT22;3823;53.586;10.040;2023-04-15T10:03:21;11.50;1.00
7564;DHT22;3823;53.586;10.040;2023-04-15T10:05:48;11.60;1.00
7564;DHT22;3823;53.586;10.040;2023-04-15T10:08:18;11.70;1.00
7564;DHT22;3823;53.586;10.040;2023-04-15T10:10:45;11.70;1.00
7564;DHT22;3823;53.586;10.040;2023-04-15T10:13:13;11.80;1.00
7564;DHT22;3823;53.586;10.040;2023-04-15T10:15:43;11.90;1.00
7564;DHT22;3823;53.586;10.040;2023-04-15T10:18:10;12.20;1.00
7564;DHT22;3823;53.586;10.040;2023-04-15T10:20:37;12.30;1.00
7564;DHT22;3823;53.586;10.040;2023-04-15T10:23:03;12.60;1.00
7564;DHT22;3823;53.586;10.040;2023-04-15T10:25:29;12.70;1.00
7564;DHT22;3823;53.586;10.040;2023-04-15T10:27:58;12.90;99.90
7564;DHT22;3823;53.586;10.040;2023-04-15T10:30:25;12.90;99.90
7564;DHT22;3823;53.586;10.040;2023-04-15T10:32:51;12.80;99.90
7564;DHT22;3823;53.586;10.040;2023-04-15T10:35:18;12.80;99.90
7564;DHT22;3823;53.586;10.040;2023-04-15T10:37:46;12.80;99.90
7564;DHT22;3823;53.586;10.040;2023-04-15T10:40:30;12.80;99.90
7564;DHT22;3823;53.586;10.040;2023-04-15T10:43:00;12.90;99.90
7564;DHT22;3823;53.586;10.040;2023-04-15T10:45:36;12.90;99.90
7564;DHT22;3823;53.586;10.040;2023-04-15T10:48:03;13.00;99.90
7564;DHT22;3823;53.586;10.040;2023-04-15T10:50:31;13.10;99.90
7564;DHT22;3823;53.586;10.040;2023-04-15T10:52:57;13.30;99.90
7564;DHT22;3823;53.586;10.040;2023-04-15T10:55:25;13.40;99.90
7564;DHT22;3823;53.586;10.040;2023-04-15T10:57:58;13.60;99.90
7564;DHT22;3823;53.586;10.040;2023-04-15T11:00:29;13.80;99.90
7564;DHT22;3823;53.586;10.040;2023-04-15T11:03:04;13.80;99.90
7564;DHT22;3823;53.586;10.040;2023-04-15T11:08:06;13.80;99.90
7564;DHT22;3823;53.586;10.040;2023-04-15T11:13:03;13.60;99.90
7564;DHT22;3823;53.586;10.040;2023-04-15T11:15:33;13.50;99.90
7564;DHT22;3823;53.586;10.040;2023-04-15T11:20:34;13.50;86.50
7564;DHT22;3823;53.586;10.040;2023-04-15T11:22:59;13.40;17.20
7564;DHT22;3823;53.586;10.040;2023-04-15T11:25:30;13.30;1.00
7564;DHT22;3823;53.586;10.040;2023-04-15T11:27:56;13.30;25.00
7564;DHT22;3823;53.586;10.040;2023-04-15T11:30:23;13.20;21.80
7564;DHT22;3823;53.586;10.040;2023-04-15T11:32:51;13.30;43.60
7564;DHT22;3823;53.586;10.040;2023-04-15T11:35:17;13.20;59.40
7564;DHT22;3823;53.586;10.040;2023-04-15T11:37:47;13.20;61.30
7564;DHT22;3823;53.586;10.040;2023-04-15T11:40:14;13.20;90.80
7564;DHT22;3823;53.586;10.040;2023-04-15T11:42:42;13.20;99.90
7564;DHT22;3823;53.586;10.040;2023-04-15T11:45:11;13.20;94.70
7564;DHT22;3823;53.586;10.040;2023-04-15T11:47:40;13.10;99.90
7564;DHT22;3823;53.586;10.040;2023-04-15T11:50:19;13.20;99.90
7564;DHT22;3823;53.586;10.040;2023-04-15T11:55:18;13.40;99.90
7564;DHT22;3823;53.586;10.040;2023-04-15T11:57:43;13.60;35.00
7564;DHT22;3823;53.586;10.040;2023-04-15T12:00:09;13.70;1.00
7564;DHT22;3823;53.586;10.040;2023-04-15T12:02:36;13.70;1.00
7564;DHT22;3823;53.586;10.040;2023-04-15T12:05:08;13.70;1.00
7564;DHT22;3823;53.586;10.040;2023-04-15T12:07:57;13.60;1.00
7564;DHT22;3823;53.586;10.040;2023-04-15T12:10:23;13.50;1.00
7564;DHT22;3823;53.586;10.040;2023-04-15T12:12:51;13.50;1.00
7564;DHT22;3823;53.586;10.040;2023-04-15T12:15:21;13.60;1.20
7564;DHT22;3823;53.586;10.040;2023-04-15T12:17:47;13.60;33.50
7564;DHT22;3823;53.586;10.040;2023-04-15T12:20:12;13.50;31.70
7564;DHT22;3823;53.586;10.040;2023-04-15T12:22:38;13.50;1.00
7564;DHT22;3823;53.586;10.040;2023-04-15T12:25:04;13.40;1.00
7564;DHT22;3823;53.586;10.040;2023-04-15T12:27:30;13.20;1.00
7564;DHT22;3823;53.586;10.040;2023-04-15T12:30:06;13.20;1.00
7564;DHT22;3823;53.586;10.040;2023-04-15T12:32:34;13.10;1.00
7564;DHT22;3823;53.586;10.040;2023-04-15T12:35:00;13.20;23.80
7564;DHT22;3823;53.586;10.040;2023-04-15T12:37:25;13.20;1.00
7564;DHT22;3823;53.586;10.040;2023-04-15T12:39:51;13.10;1.00
7564;DHT22;3823;53.586;10.040;2023-04-15T12:42:18;13.10;1.00
7564;DHT22;3823;53.586;10.040;2023-04-15T12:44:44;13.00;1.00
7564;DHT22;3823;53.586;10.040;2023-04-15T12:47:11;13.00;1.00
7564;DHT22;3823;53.586;10.040;2023-04-15T12:49:36;13.10;1.00
7564;DHT22;3823;53.586;10.040;2023-04-15T12:52:02;13.10;1.00
7564;DHT22;3823;53.586;10.040;2023-04-15T12:54:29;13.10;1.00
7564;DHT22;3823;53.586;10.040;2023-04-15T12:56:56;13.10;1.00
7564;DHT22;3823;53.586;10.040;2023-04-15T12:59:45;13.10;1.00
7564;DHT22;3823;53.586;10.040;2023-04-15T13:02:21;13.20;1.00
7564;DHT22;3823;53.586;10.040;2023-04-15T13:04:49;13.30;1.00
7564;DHT22;3823;53.586;10.040;2023-04-15T13:07:15;13.30;1.00
7564;DHT22;3823;53.586;10.040;2023-04-15T13:09:40;13.40;1.00
7564;DHT22;3823;53.586;10.040;2023-04-15T13:12:06;13.50;1.00
7564;DHT22;3823;53.586;10.040;2023-04-15T13:14:31;13.50;1.00
7564;DHT22;3823;53.586;10.040;2023-04-15T13:16:58;13.60;1.00
7564;DHT22;3823;53.586;10.040;2023-04-15T13:19:23;13.70;1.00
7564;DHT22;3823;53.586;10.040;2023-04-15T13:21:49;13.70;1.00
7564;DHT22;3823;53.586;10.040;2023-04-15T13:24:14;13.80;1.00
7564;DHT22;3823;53.586;10.040;2023-04-15T13:26:40;13.80;1.00
7564;DHT22;3823;53.586;10.040;2023-04-15T13:29:06;13.80;1.00
7564;DHT22;3823;53.586;10.040;2023-04-15T13:31:31;13.90;1.00
7564;DHT22;3823;53.586;10.040;2023-04-15T13:33:57;13.90;1.00
7564;DHT22;3823;53.586;10.040;2023-04-15T13:36:22;13.90;1.00
7564;DHT22;3823;53.586;10.040;2023-04-15T13:38:48;13.80;1.00
7564;DHT22;3823;53.586;10.040;2023-04-15T13:41:14;13.80;1.00
7564;DHT22;3823;53.586;10.040;2023-04-15T13:43:39;13.80;1.00
7564;DHT22;3823;53.586;10.040;2023-04-15T13:46:05;13.80;1.00
7564;DHT22;3823;53.586;10.040;2023-04-15T13:48:31;13.80;1.00
7564;DHT22;3823;53.586;10.040;2023-04-15T13:50:56;13.90;1.00
7564;DHT22;3823;53.586;10.040;2023-04-15T13:53:22;14.00;1.00
7564;DHT22;3823;53.586;10.040;2023-04-15T13:55:48;14.00;1.00
7564;DHT22;3823;53.586;10.040;2023-04-15T13:58:13;13.90;1.00
7564;DHT22;3823;53.586;10.040;2023-04-15T14:00:39;14.00;1.00
7564;DHT22;3823;53.586;10.040;2023-04-15T14:03:05;14.00;1.00
7564;DHT22;3823;53.586;10.040;2023-04-15T14:05:31;14.10;1.00
7564;DHT22;3823;53.586;10.040;2023-04-15T14:07:58;14.20;1.00
7564;DHT22;3823;53.586;10.040;2023-04-15T14:10:24;14.20;1.00
7564;DHT22;3823;53.586;10.040;2023-04-15T14:12:49;14.20;1.00
7564;DHT22;3823;53.586;10.040;2023-04-15T14:15:15;14.30;1.00
7564;DHT22;3823;53.586;10.040;2023-04-15T14:17:41;14.30;1.00
7564;DHT22;3823;53.586;10.040;2023-04-15T14:20:07;14.50;1.00
7564;DHT22;3823;53.586;10.040;2023-04-15T14:22:33;14.50;1.00
7564;DHT22;3823;53.586;10.040;2023-04-15T14:24:58;14.60;1.00
7564;DHT22;3823;53.586;10.040;2023-04-15T14:27:25;14.70;1.00
7564;DHT22;3823;53.586;10.040;2023-04-15T14:29:51;14.70;1.00
7564;DHT22;3823;53.586;10.040;2023-04-15T14:32:18;14.60;1.00
7564;DHT22;3823;53.586;10.040;2023-04-15T14:34:44;14.60;1.00
7564;DHT22;3823;53.586;10.040;2023-04-15T14:37:09;14.50;1.00
7564;DHT22;3823;53.586;10.040;2023-04-15T14:39:35;14.50;1.00
7564;DHT22;3823;53.586;10.040;2023-04-15T14:42:00;14.50;1.00
7564;DHT22;3823;53.586;10.040;2023-04-15T14:44:26;14.70;1.00
7564;DHT22;3823;53.586;10.040;2023-04-15T14:46:52;14.70;1.00
7564;DHT22;3823;53.586;10.040;2023-04-15T14:49:19;14.90;1.00
7564;DHT22;3823;53.586;10.040;2023-04-15T14:51:44;14.90;1.00
7564;DHT22;3823;53.586;10.040;2023-04-15T14:54:10;15.00;1.00
7564;DHT22;3823;53.586;10.040;2023-04-15T14:56:36;15.00;1.00
7564;DHT22;3823;53.586;10.040;2023-04-15T14:59:01;14.80;1.00
7564;DHT22;3823;53.586;10.040;2023-04-15T15:01:27;14.70;1.00
7564;DHT22;3823;53.586;10.040;2023-04-15T15:03:53;14.70;1.00
7564;DHT22;3823;53.586;10.040;2023-04-15T15:06:20;14.80;1.00
7564;DHT22;3823;53.586;10.040;2023-04-15T15:08:48;14.90;1.00
7564;DHT22;3823;53.586;10.040;2023-04-15T15:11:15;15.10;1.00
7564;DHT22;3823;53.586;10.040;2023-04-15T15:13:40;15.10;1.00
7564;DHT22;3823;53.586;10.040;2023-04-15T15:16:06;15.00;1.00
7564;DHT22;3823;53.586;10.040;2023-04-15T15:18:31;14.90;1.00
7564;DHT22;3823;53.586;10.040;2023-04-15T15:20:57;14.90;1.00
7564;DHT22;3823;53.586;10.040;2023-04-15T15:23:22;14.70;1.00
7564;DHT22;3823;53.586;10.040;2023-04-15T15:25:48;14.50;1.00
7564;DHT22;3823;53.586;10.040;2023-04-15T15:28:13;14.30;1.00
7564;DHT22;3823;53.586;10.040;2023-04-15T15:30:39;14.20;1.00
7564;DHT22;3823;53.586;10.040;2023-04-15T15:33:05;14.10;1.00
7564;DHT22;3823;53.586;10.040;2023-04-15T15:35:31;14.10;1.00
7564;DHT22;3823;53.586;10.040;2023-04-15T15:37:58;14.10;1.00
7564;DHT22;3823;53.586;10.040;2023-04-15T15:40:24;14.10;1.00
7564;DHT22;3823;53.586;10.040;2023-04-15T15:42:50;14.10;1.00
7564;DHT22;3823;53.586;10.040;2023-04-15T15:45:16;14.00;1.00
7564;DHT22;3823;53.586;10.040;2023-04-15T15:47:42;14.00;1.00
7564;DHT22;3823;53.586;10.040;2023-04-15T15:50:08;14.00;1.00
7564;DHT22;3823;53.586;10.040;2023-04-15T15:52:33;14.00;1.00
7564;DHT22;3823;53.586;10.040;2023-04-15T15:54:59;13.90;1.00
7564;DHT22;3823;53.586;10.040;2023-04-15T15:57:25;13.90;1.00
7564;DHT22;3823;53.586;10.040;2023-04-15T15:59:50;13.90;1.00
7564;DHT22;3823;53.586;10.040;2023-04-15T16:02:16;13.80;1.00
7564;DHT22;3823;53.586;10.040;2023-04-15T16:04:41;13.70;1.00
7564;DHT22;3823;53.586;10.040;2023-04-15T16:07:08;13.60;1.00
7564;DHT22;3823;53.586;10.040;2023-04-15T16:09:34;13.50;1.00
7564;DHT22;3823;53.586;10.040;2023-04-15T16:11:59;13.40;1.00
7564;DHT22;3823;53.586;10.040;2023-04-15T16:14:26;13.40;1.00
7564;DHT22;3823;53.586;10.040;2023-04-15T16:16:52;13.30;1.00
7564;DHT22;3823;53.586;10.040;2023-04-15T16:19:18;13.20;1.00
7564;DHT22;3823;53.586;10.040;2023-04-15T16:21:44;13.30;1.00
7564;DHT22;3823;53.586;10.040;2023-04-15T16:24:10;13.30;1.00
7564;DHT22;3823;53.586;10.040;2023-04-15T16:26:35;13.20;1.00
7564;DHT22;3823;53.586;10.040;2023-04-15T16:29:01;13.20;1.00
7564;DHT22;3823;53.586;10.040;2023-04-15T16:31:27;13.10;1.00
7564;DHT22;3823;53.586;10.040;2023-04-15T16:33:53;13.10;1.00
7564;DHT22;3823;53.586;10.040;2023-04-15T16:36:18;13.10;1.00
7564;DHT22;3823;53.586;10.040;2023-04-15T16:38:44;13.20;1.00
7564;DHT22;3823;53.586;10.040;2023-04-15T16:41:13;13.30;1.00
7564;DHT22;3823;53.586;10.040;2023-04-15T16:43:38;13.30;1.00
7564;DHT22;3823;53.586;10.040;2023-04-15T16:46:04;13.20;1.00
7564;DHT22;3823;53.586;10.040;2023-04-15T16:48:30;13.20;1.00
7564;DHT22;3823;53.586;10.040;2023-04-15T16:50:56;13.10;1.00
7564;DHT22;3823;53.586;10.040;2023-04-15T16:53:22;13.00;1.00
7564;DHT22;3823;53.586;10.040;2023-04-15T16:55:47;13.00;1.00
7564;DHT22;3823;53.586;10.040;2023-04-15T16:58:13;13.10;1.00
7564;DHT22;3823;53.586;10.040;2023-04-15T17:00:38;13.10;1.00
7564;DHT22;3823;53.586;10.040;2023-04-15T17:03:04;13.00;1.00
7564;DHT22;3823;53.586;10.040;2023-04-15T17:05:30;12.90;5.50
7564;DHT22;3823;53.586;10.040;2023-04-15T17:07:55;12.90;20.50
7564;DHT22;3823;53.586;10.040;2023-04-15T17:10:21;12.80;14.30
7564;DHT22;3823;53.586;10.040;2023-04-15T17:12:47;12.90;12.50
7564;DHT22;3823;53.586;10.040;2023-04-15T17:15:14;12.80;10.30
7564;DHT22;3823;53.586;10.040;2023-04-15T17:17:39;12.80;21.00
7564;DHT22;3823;53.586;10.040;2023-04-15T17:20:05;12.70;25.50
7564;DHT22;3823;53.586;10.040;2023-04-15T17:22:31;12.60;38.90
7564;DHT22;3823;53.586;10.040;2023-04-15T17:24:57;12.60;45.20
7564;DHT22;3823;53.586;10.040;2023-04-15T17:27:23;12.60;72.90
7564;DHT22;3823;53.586;10.040;2023-04-15T17:29:50;12.50;83.80
7564;DHT22;3823;53.586;10.040;2023-04-15T17:32:16;12.40;99.90
7564;DHT22;3823;53.586;10.040;2023-04-15T17:34:42;12.40;99.90
7564;DHT22;3823;53.586;10.040;2023-04-15T17:37:07;12.40;99.90
7564;DHT22;3823;53.586;10.040;2023-04-15T17:39:33;12.40;99.90
7564;DHT22;3823;53.586;10.040;2023-04-15T17:41:58;12.50;99.90
7564;DHT22;3823;53.586;10.040;2023-04-15T17:44:24;12.50;99.90
7564;DHT22;3823;53.586;10.040;2023-04-15T17:46:49;12.60;99.90
7564;DHT22;3823;53.586;10.040;2023-04-15T17:49:15;12.60;99.90
7564;DHT22;3823;53.586;10.040;2023-04-15T17:51:40;12.50;99.90
7564;DHT22;3823;53.586;10.040;2023-04-15T17:54:06;12.50;99.90
7564;DHT22;3823;53.586;10.040;2023-04-15T17:56:33;12.50;99.90
7564;DHT22;3823;53.586;10.040;2023-04-15T17:58:58;12.40;99.90
7564;DHT22;3823;53.586;10.040;2023-04-15T18:01:24;12.30;99.90
7564;DHT22;3823;53.586;10.040;2023-04-15T18:03:50;12.30;99.90
7564;DHT22;3823;53.586;10.040;2023-04-15T18:06:16;12.20;99.90
7564;DHT22;3823;53.586;10.040;2023-04-15T18:08:41;12.20;99.90
7564;DHT22;3823;53.586;10.040;2023-04-15T18:11:07;12.10;99.90
7564;DHT22;3823;53.586;10.040;2023-04-15T18:13:33;12.10;99.90
7564;DHT22;3823;53.586;10.040;2023-04-15T18:15:58;12.00;99.90
7564;DHT22;3823;53.586;10.040;2023-04-15T18:18:24;12.00;99.90
7564;DHT22;3823;53.586;10.040;2023-04-15T18:20:50;11.90;99.90
7564;DHT22;3823;53.586;10.040;2023-04-15T18:23:15;11.80;99.90
7564;DHT22;3823;53.586;10.040;2023-04-15T18:25:41;11.70;99.90
7564;DHT22;3823;53.586;10.040;2023-04-15T18:28:08;11.60;99.90
7564;DHT22;3823;53.586;10.040;2023-04-15T18:30:34;11.60;99.90
7564;DHT22;3823;53.586;10.040;2023-04-15T18:33:00;11.60;99.90
7564;DHT22;3823;53.586;10.040;2023-04-15T18:35:26;11.60;99.90
7564;DHT22;3823;53.586;10.040;2023-04-15T18:37:55;11.60;99.90
7564;DHT22;3823;53.586;10.040;2023-04-15T18:40:21;11.60;99.90
7564;DHT22;3823;53.586;10.040;2023-04-15T18:42:46;11.60;99.90
7564;DHT22;3823;53.586;10.040;2023-04-15T18:45:12;11.60;99.90
7564;DHT22;3823;53.586;10.040;2023-04-15T18:47:37;11.70;99.90
7564;DHT22;3823;53.586;10.040;2023-04-15T18:50:03;11.60;99.90
7564;DHT22;3823;53.586;10.040;2023-04-15T18:52:29;11.50;99.90
7564;DHT22;3823;53.586;10.040;2023-04-15T18:54:55;11.40;99.90
7564;DHT22;3823;53.586;10.040;2023-04-15T18:57:21;11.30;99.90
7564;DHT22;3823;53.586;10.040;2023-04-15T18:59:46;11.20;99.90
7564;DHT22;3823;53.586;10.040;2023-04-15T19:02:12;11.30;99.90
7564;DHT22;3823;53.586;10.040;2023-04-15T19:04:37;11.20;99.90
7564;DHT22;3823;53.586;10.040;2023-04-15T19:07:03;11.20;99.90
7564;DHT22;3823;53.586;10.040;2023-04-15T19:09:28;11.10;99.90
7564;DHT22;3823;53.586;10.040;2023-04-15T19:11:54;11.00;99.90
7564;DHT22;3823;53.586;10.040;2023-04-15T19:14:21;11.00;99.90
7564;DHT22;3823;53.586;10.040;2023-04-15T19:16:46;10.90;99.90
7564;DHT22;3823;53.586;10.040;2023-04-15T19:19:12;10.90;99.90
7564;DHT22;3823;53.586;10.040;2023-04-15T19:21:39;10.80;99.90
7564;DHT22;3823;53.586;10.040;2023-04-15T19:24:05;10.80;99.90
7564;DHT22;3823;53.586;10.040;2023-04-15T19:26:30;10.70;99.90
7564;DHT22;3823;53.586;10.040;2023-04-15T19:28:56;10.60;99.90
7564;DHT22;3823;53.586;10.040;2023-04-15T19:31:23;10.60;99.90
7564;DHT22;3823;53.586;10.040;2023-04-15T19:33:50;10.60;99.90
7564;DHT22;3823;53.586;10.040;2023-04-15T19:36:16;10.50;99.90
7564;DHT22;3823;53.586;10.040;2023-04-15T19:38:42;10.50;99.90
7564;DHT22;3823;53.586;10.040;2023-04-15T19:41:09;10.50;99.90
7564;DHT22;3823;53.586;10.040;2023-04-15T19:43:35;10.60;99.90
7564;DHT22;3823;53.586;10.040;2023-04-15T19:48:58;10.70;99.90
7564;DHT22;3823;53.586;10.040;2023-04-15T19:51:42;10.60;99.90
7564;DHT22;3823;53.586;10.040;2023-04-15T19:57:44;10.70;99.90
7564;DHT22;3823;53.586;10.040;2023-04-15T20:00:15;10.70;99.90
7564;DHT22;3823;53.586;10.040;2023-04-15T20:02:41;10.70;99.90
7564;DHT22;3823;53.586;10.040;2023-04-15T20:05:06;10.70;99.90
7564;DHT22;3823;53.586;10.040;2023-04-15T20:07:34;10.70;99.90
7564;DHT22;3823;53.586;10.040;2023-04-15T20:09:59;10.70;99.90
7564;DHT22;3823;53.586;10.040;2023-04-15T20:12:25;10.70;99.90
7564;DHT22;3823;53.586;10.040;2023-04-15T20:14:51;10.70;99.90
7564;DHT22;3823;53.586;10.040;2023-04-15T20:17:16;10.80;99.90
7564;DHT22;3823;53.586;10.040;2023-04-15T20:19:42;10.80;99.90
7564;DHT22;3823;53.586;10.040;2023-04-15T20:22:08;10.80;99.90
7564;DHT22;3823;53.586;10.040;2023-04-15T20:24:33;10.80;99.90
7564;DHT22;3823;53.586;10.040;2023-04-15T20:26:59;10.70;99.90
7564;DHT22;3823;53.586;10.040;2023-04-15T20:29:24;10.70;99.90
7564;DHT22;3823;53.586;10.040;2023-04-15T20:31:50;10.60;99.90
7564;DHT22;3823;53.586;10.040;2023-04-15T20:34:16;10.60;99.90
7564;DHT22;3823;53.586;10.040;2023-04-15T20:36:41;10.70;99.90
7564;DHT22;3823;53.586;10.040;2023-04-15T20:39:07;10.60;99.90
7564;DHT22;3823;53.586;10.040;2023-04-15T20:41:32;10.60;99.90
7564;DHT22;3823;53.586;10.040;2023-04-15T20:43:58;10.60;99.90
7564;DHT22;3823;53.586;10.040;2023-04-15T20:46:23;10.60;99.90
7564;DHT22;3823;53.586;10.040;2023-04-15T20:48:49;10.70;99.90
7564;DHT22;3823;53.586;10.040;2023-04-15T20:51:15;10.60;99.90
7564;DHT22;3823;53.586;10.040;2023-04-15T20:53:40;10.60;99.90
7564;DHT22;3823;53.586;10.040;2023-04-15T20:56:06;10.60;99.90
7564;DHT22;3823;53.586;10.040;2023-04-15T20:58:31;10.60;99.90
